createdAt,value
2023-02-08T00:01:00.289Z,0.00
2023-02-08T00:03:29.212Z,0.00
2023-02-08T00:05:56.659Z,0.00
2023-02-08T00:08:24.056Z,0.00
2023-02-08T00:10:51.683Z,0.00
2023-02-08T00:13:19.362Z,0.00
2023-02-08T00:15:47.450Z,0.10
2023-02-08T00:18:15.179Z,0.10
2023-02-08T00:20:43.371Z,0.10
2023-02-08T00:23:12.290Z,0.10
2023-02-08T00:25:41.290Z,0.10
2023-02-08T00:28:13.776Z,0.10
2023-02-08T00:30:42.973Z,0.00
2023-02-08T00:33:11.271Z,-0.20
2023-02-08T00:35:39.062Z,-0.30
2023-02-08T00:38:06.447Z,-0.50
2023-02-08T00:40:33.926Z,-0.50
2023-02-08T00:43:01.368Z,-0.60
2023-02-08T00:45:28.853Z,-0.70
2023-02-08T00:47:57.576Z,-0.80
2023-02-08T00:50:25.202Z,-0.90
2023-02-08T00:52:52.673Z,-1.00
2023-02-08T00:55:20.139Z,-0.90
2023-02-08T00:57:47.810Z,-0.90
2023-02-08T01:00:15.409Z,-0.90
2023-02-08T01:02:42.873Z,-0.80
2023-02-08T01:05:11.714Z,-0.70
2023-02-08T01:07:40.725Z,-0.60
2023-02-08T01:10:12.489Z,-0.40
2023-02-08T01:12:41.502Z,-0.30
2023-02-08T01:15:09.418Z,-0.10
2023-02-08T01:17:36.833Z,0.10
2023-02-08T01:20:04.529Z,0.20
2023-02-08T01:22:31.974Z,0.30
2023-02-08T01:25:01.241Z,0.40
2023-02-08T01:27:28.780Z,0.40
2023-02-08T01:29:56.241Z,0.50
2023-02-08T01:32:23.703Z,0.60
2023-02-08T01:34:51.324Z,0.50
2023-02-08T01:37:18.751Z,0.50
2023-02-08T01:39:48.070Z,0.60
2023-02-08T01:42:17.375Z,0.70
2023-02-08T01:45:33.383Z,0.80
2023-02-08T01:48:12.138Z,1.00
2023-02-08T01:50:52.796Z,1.10
2023-02-08T01:53:21.174Z,1.10
2023-02-08T01:55:54.746Z,1.00
2023-02-08T01:58:24.724Z,0.90
2023-02-08T02:00:52.222Z,0.90
2023-02-08T02:03:22.410Z,0.90
2023-02-08T02:06:01.590Z,1.00
2023-02-08T02:08:30.119Z,0.90
2023-02-08T02:10:57.539Z,0.80
2023-02-08T02:13:27.296Z,0.80
2023-02-08T02:15:55.258Z,0.80
2023-02-08T02:18:29.714Z,0.70
2023-02-08T02:21:17.333Z,0.70
2023-02-08T02:24:05.093Z,0.70
2023-02-08T02:27:09.987Z,0.70
2023-02-08T02:29:49.301Z,0.70
2023-02-08T02:32:58.326Z,0.70
2023-02-08T02:35:40.296Z,0.70
2023-02-08T02:38:11.500Z,0.80
2023-02-08T02:41:03.816Z,0.90
2023-02-08T02:43:43.292Z,0.80
2023-02-08T02:46:37.342Z,1.00
2023-02-08T02:49:27.404Z,1.10
2023-02-08T02:52:03.523Z,1.00
2023-02-08T02:54:47.357Z,1.00
2023-02-08T02:57:19.504Z,0.90
2023-02-08T02:59:47.104Z,1.00
2023-02-08T03:02:14.958Z,1.10
2023-02-08T03:04:42.305Z,1.20
2023-02-08T03:07:18.595Z,1.30
2023-02-08T03:10:07.770Z,1.40
2023-02-08T03:12:58.701Z,1.40
2023-02-08T03:15:47.982Z,1.60
2023-02-08T03:18:18.141Z,1.50
2023-02-08T03:20:57.269Z,1.50
2023-02-08T03:23:48.134Z,1.50
2023-02-08T03:26:32.053Z,1.40
2023-02-08T03:29:06.009Z,1.20
2023-02-08T03:31:41.634Z,1.10
2023-02-08T03:34:21.397Z,1.10
2023-02-08T03:37:18.449Z,1.00
2023-02-08T03:39:49.216Z,1.00
2023-02-08T03:42:23.004Z,1.10
2023-02-08T03:45:27.602Z,1.10
2023-02-08T03:48:00.264Z,1.30
2023-02-08T03:50:30.940Z,1.30
2023-02-08T03:52:58.907Z,1.30
2023-02-08T03:55:30.002Z,1.30
2023-02-08T03:58:08.529Z,1.30
2023-02-08T04:00:42.687Z,1.30
2023-02-08T04:03:19.238Z,1.20
2023-02-08T04:05:47.124Z,1.10
2023-02-08T04:08:15.478Z,1.00
2023-02-08T04:10:43.176Z,1.10
2023-02-08T04:13:10.643Z,1.20
2023-02-08T04:15:38.059Z,1.30
2023-02-08T04:18:05.642Z,1.30
2023-02-08T04:20:33.136Z,1.30
2023-02-08T04:23:00.575Z,1.30
2023-02-08T04:25:28.172Z,1.30
2023-02-08T04:27:55.601Z,1.20
2023-02-08T04:30:23.050Z,1.10
2023-02-08T04:32:50.423Z,1.10
2023-02-08T04:35:17.890Z,1.10
2023-02-08T04:37:45.300Z,1.00
2023-02-08T04:40:13.039Z,1.00
2023-02-08T04:42:40.435Z,0.80
2023-02-08T04:45:08.375Z,0.70
2023-02-08T04:47:35.838Z,0.60
2023-02-08T04:50:03.505Z,0.50
2023-02-08T04:52:31.072Z,0.50
2023-02-08T04:54:58.511Z,0.40
2023-02-08T04:57:25.937Z,0.30
2023-02-08T04:59:53.406Z,0.20
2023-02-08T05:02:21.098Z,0.20
2023-02-08T05:04:48.510Z,0.10
2023-02-08T05:07:15.957Z,0.00
2023-02-08T05:09:43.425Z,0.00
2023-02-08T05:12:10.838Z,0.00
2023-02-08T05:14:38.325Z,0.00
2023-02-08T05:17:05.816Z,0.00
2023-02-08T05:19:33.237Z,-0.10
2023-02-08T05:22:00.701Z,-0.10
2023-02-08T05:24:28.242Z,-0.20
2023-02-08T05:26:55.662Z,-0.20
2023-02-08T05:29:23.041Z,-0.10
2023-02-08T05:31:50.519Z,0.10
2023-02-08T05:34:17.928Z,0.20
2023-02-08T05:36:45.282Z,0.20
2023-02-08T05:39:12.670Z,0.20
2023-02-08T05:41:39.995Z,0.10
2023-02-08T05:44:08.951Z,0.00
2023-02-08T05:46:38.155Z,0.10
2023-02-08T05:49:05.947Z,-0.10
2023-02-08T05:51:33.304Z,-0.10
2023-02-08T05:54:00.748Z,-0.20
2023-02-08T05:56:28.553Z,-0.20
2023-02-08T05:58:56.075Z,-0.30
2023-02-08T06:01:23.509Z,-0.40
2023-02-08T06:03:51.068Z,-0.40
2023-02-08T06:06:18.524Z,-0.50
2023-02-08T06:08:46.104Z,-0.50
2023-02-08T06:11:13.736Z,-0.50
2023-02-08T06:13:41.161Z,-0.60
2023-02-08T06:16:08.850Z,-0.60
2023-02-08T06:18:36.318Z,-0.60
2023-02-08T06:21:04.029Z,-0.60
2023-02-08T06:23:31.649Z,-0.50
2023-02-08T06:25:59.115Z,-0.60
2023-02-08T06:28:26.633Z,-0.60
2023-02-08T06:30:54.064Z,-0.60
2023-02-08T06:33:21.511Z,-0.70
2023-02-08T06:35:52.120Z,-0.70
2023-02-08T06:38:20.284Z,-0.70
2023-02-08T06:40:49.459Z,-0.80
2023-02-08T06:43:17.132Z,-0.80
2023-02-08T06:45:46.394Z,-0.80
2023-02-08T06:48:14.474Z,-0.80
2023-02-08T06:50:42.242Z,-0.70
2023-02-08T06:53:09.840Z,-0.60
2023-02-08T06:55:37.290Z,-0.50
2023-02-08T06:58:04.737Z,-0.40
2023-02-08T07:00:32.817Z,-0.40
2023-02-08T07:03:00.874Z,-0.20
2023-02-08T07:05:28.590Z,-0.20
2023-02-08T07:07:56.026Z,-0.10
2023-02-08T07:10:23.493Z,0.00
2023-02-08T07:12:50.869Z,0.00
2023-02-08T07:15:18.394Z,0.10
2023-02-08T07:17:45.750Z,0.30
2023-02-08T07:20:13.823Z,1.00
2023-02-08T07:22:41.638Z,2.50
2023-02-08T07:25:09.505Z,4.00
2023-02-08T07:27:37.360Z,5.30
2023-02-08T07:30:05.307Z,6.50
2023-02-08T07:32:34.792Z,7.20
2023-02-08T07:35:02.310Z,7.70
2023-02-08T07:37:29.760Z,8.10
2023-02-08T07:39:57.145Z,8.40
2023-02-08T07:42:24.521Z,8.50
2023-02-08T07:45:07.706Z,8.90
2023-02-08T07:47:35.105Z,9.40
2023-02-08T07:50:02.560Z,9.90
2023-02-08T07:52:30.100Z,10.40
2023-02-08T07:54:57.474Z,11.20
2023-02-08T07:57:25.826Z,11.80
2023-02-08T07:59:54.225Z,12.30
2023-02-08T08:02:21.807Z,12.70
2023-02-08T08:04:49.621Z,13.10
2023-02-08T08:07:17.118Z,13.40
2023-02-08T08:09:44.521Z,13.80
2023-02-08T08:12:11.923Z,14.20
2023-02-08T08:14:39.896Z,14.40
2023-02-08T08:17:07.304Z,14.70
2023-02-08T08:19:34.703Z,14.90
2023-02-08T08:22:02.177Z,14.10
2023-02-08T08:24:31.726Z,14.30
2023-02-08T08:26:59.184Z,14.50
2023-02-08T08:29:26.648Z,14.50
2023-02-08T08:31:55.152Z,14.00
2023-02-08T08:34:30.253Z,14.10
2023-02-08T08:37:01.962Z,14.40
2023-02-08T08:39:33.136Z,14.00
2023-02-08T08:42:07.809Z,13.80
2023-02-08T08:44:36.044Z,13.70
2023-02-08T08:47:05.962Z,13.90
2023-02-08T08:49:34.495Z,13.20
2023-02-08T08:52:01.867Z,13.30
2023-02-08T08:54:29.257Z,13.70
2023-02-08T08:56:56.622Z,14.10
2023-02-08T08:59:24.159Z,13.30
2023-02-08T09:01:51.643Z,12.40
2023-02-08T09:04:19.996Z,11.40
2023-02-08T09:06:47.392Z,11.10
2023-02-08T09:09:15.126Z,10.80
2023-02-08T09:11:42.987Z,10.80
2023-02-08T09:14:12.298Z,10.50
2023-02-08T09:16:44.208Z,10.70
2023-02-08T09:19:11.592Z,10.50
2023-02-08T09:21:40.381Z,10.10
2023-02-08T09:24:07.922Z,10.20
2023-02-08T09:26:36.014Z,10.60
2023-02-08T09:29:03.586Z,11.00
2023-02-08T09:31:32.891Z,11.10
2023-02-08T09:34:01.574Z,11.60
2023-02-08T09:36:32.297Z,12.00
2023-02-08T09:39:06.390Z,12.00
2023-02-08T09:41:55.445Z,11.20
2023-02-08T09:44:48.951Z,10.70
2023-02-08T09:47:21.137Z,10.50
2023-02-08T09:50:10.749Z,10.30
2023-02-08T09:52:55.514Z,10.20
2023-02-08T09:55:46.496Z,10.10
2023-02-08T09:58:19.027Z,10.30
2023-02-08T10:00:50.762Z,10.80
2023-02-08T10:03:27.148Z,10.90
2023-02-08T10:05:55.090Z,10.70
2023-02-08T10:08:26.944Z,10.90
2023-02-08T10:11:10.663Z,11.40
2023-02-08T10:13:52.194Z,11.30
2023-02-08T10:16:24.544Z,11.10
2023-02-08T10:19:29.461Z,10.90
2023-02-08T10:22:20.412Z,10.20
2023-02-08T10:25:32.285Z,9.60
2023-02-08T10:28:23.751Z,9.50
2023-02-08T10:31:03.641Z,9.40
2023-02-08T10:33:50.080Z,9.50
2023-02-08T10:36:26.119Z,8.90
2023-02-08T10:38:55.966Z,8.60
2023-02-08T10:41:36.620Z,8.40
2023-02-08T10:44:25.938Z,8.10
2023-02-08T10:47:08.859Z,7.70
2023-02-08T10:50:04.455Z,6.90
2023-02-08T10:52:32.339Z,6.50
2023-02-08T10:55:00.113Z,6.30
2023-02-08T10:57:34.606Z,6.40
2023-02-08T11:00:04.317Z,6.20
2023-02-08T11:02:42.472Z,6.30
2023-02-08T11:05:13.233Z,6.10
2023-02-08T11:07:40.926Z,6.20
2023-02-08T11:10:19.355Z,6.20
2023-02-08T11:13:26.734Z,6.00
2023-02-08T11:15:58.921Z,6.10
2023-02-08T11:18:27.833Z,6.10
2023-02-08T11:21:29.822Z,5.90
2023-02-08T11:23:58.329Z,5.70
2023-02-08T11:26:32.780Z,5.60
2023-02-08T11:29:17.198Z,5.50
2023-02-08T11:32:00.195Z,5.60
2023-02-08T11:34:40.347Z,5.80
2023-02-08T11:37:17.122Z,5.80
2023-02-08T11:39:54.404Z,5.70
2023-02-08T11:42:24.087Z,5.80
2023-02-08T11:44:53.455Z,5.80
2023-02-08T11:47:30.142Z,5.80
2023-02-08T11:50:00.761Z,5.80
2023-02-08T11:52:39.305Z,5.80
2023-02-08T11:55:18.185Z,5.90
2023-02-08T11:58:06.252Z,6.00
2023-02-08T12:00:38.427Z,5.90
2023-02-08T12:03:11.936Z,5.80
2023-02-08T12:06:01.298Z,6.00
2023-02-08T12:08:44.406Z,6.10
2023-02-08T12:11:37.474Z,5.90
2023-02-08T12:14:14.142Z,5.90
2023-02-08T12:16:57.112Z,6.00
2023-02-08T12:19:56.939Z,5.80
2023-02-08T12:22:27.768Z,5.80
2023-02-08T12:25:21.031Z,5.80
2023-02-08T12:28:23.109Z,5.80
2023-02-08T12:30:50.707Z,5.70
2023-02-08T12:33:34.408Z,5.80
2023-02-08T12:36:26.624Z,5.70
2023-02-08T12:39:19.888Z,5.60
2023-02-08T12:42:09.735Z,5.70
2023-02-08T12:44:46.204Z,5.80
2023-02-08T12:48:03.771Z,5.60
2023-02-08T12:50:53.221Z,5.60
2023-02-08T12:53:31.105Z,5.60
2023-02-08T12:56:02.404Z,5.60
2023-02-08T12:58:35.261Z,5.70
2023-02-08T13:01:11.053Z,5.80
2023-02-08T13:03:59.969Z,5.80
2023-02-08T13:06:41.389Z,5.80
2023-02-08T13:09:25.236Z,5.90
2023-02-08T13:11:59.106Z,5.90
2023-02-08T13:14:34.265Z,5.80
2023-02-08T13:17:27.233Z,5.80
2023-02-08T13:20:06.063Z,5.80
2023-02-08T13:22:41.347Z,5.90
2023-02-08T13:25:29.210Z,5.90
2023-02-08T13:28:03.629Z,6.00
2023-02-08T13:30:38.859Z,6.00
2023-02-08T13:33:18.628Z,5.90
2023-02-08T13:35:53.806Z,5.90
2023-02-08T13:38:33.111Z,5.90
2023-02-08T13:41:24.914Z,5.90
2023-02-08T13:44:05.999Z,5.90
2023-02-08T13:46:49.279Z,6.00
2023-02-08T13:50:01.342Z,6.00
2023-02-08T13:52:48.188Z,6.10
2023-02-08T13:55:32.050Z,6.00
2023-02-08T13:58:25.123Z,5.80
2023-02-08T14:00:55.278Z,5.90
2023-02-08T14:03:29.880Z,5.90
2023-02-08T14:06:02.967Z,5.80
2023-02-08T14:08:39.455Z,5.80
2023-02-08T14:11:21.924Z,5.80
2023-02-08T14:14:15.483Z,5.80
2023-02-08T14:17:28.382Z,5.80
2023-02-08T14:20:01.872Z,5.80
2023-02-08T14:22:38.933Z,5.70
2023-02-08T14:25:17.878Z,5.70
2023-02-08T14:27:56.994Z,5.70
2023-02-08T14:30:33.755Z,5.60
2023-02-08T14:33:07.522Z,5.60
2023-02-08T14:35:39.450Z,5.60
2023-02-08T14:38:19.066Z,5.50
2023-02-08T14:41:00.550Z,5.50
2023-02-08T14:43:34.934Z,5.50
2023-02-08T14:46:40.260Z,5.50
2023-02-08T14:49:14.841Z,5.50
2023-02-08T14:51:56.837Z,5.50
2023-02-08T14:54:44.901Z,5.50
2023-02-08T14:57:32.589Z,5.40
2023-02-08T15:00:02.477Z,5.50
2023-02-08T15:02:31.505Z,5.30
2023-02-08T15:05:01.268Z,5.30
2023-02-08T15:07:33.314Z,5.20
2023-02-08T15:10:07.047Z,5.20
2023-02-08T15:12:38.278Z,5.20
2023-02-08T15:15:06.992Z,5.10
2023-02-08T15:17:45.524Z,5.10
2023-02-08T15:20:23.946Z,5.10
2023-02-08T15:23:03.091Z,5.10
2023-02-08T15:25:36.895Z,5.10
2023-02-08T15:28:18.489Z,5.10
2023-02-08T15:30:53.319Z,5.00
2023-02-08T15:33:21.230Z,5.00
2023-02-08T15:36:21.121Z,5.00
2023-02-08T15:38:48.757Z,5.00
2023-02-08T15:41:36.209Z,4.90
2023-02-08T15:44:23.228Z,4.90
2023-02-08T15:46:55.855Z,4.90
2023-02-08T15:49:44.863Z,4.80
2023-02-08T15:52:18.128Z,4.80
2023-02-08T15:54:46.727Z,4.70
2023-02-08T15:57:19.859Z,4.70
2023-02-08T15:59:48.325Z,4.60
2023-02-08T16:02:28.878Z,4.60
2023-02-08T16:04:57.786Z,4.50
2023-02-08T16:07:38.123Z,4.50
2023-02-08T16:10:07.844Z,4.40
2023-02-08T16:12:35.800Z,4.30
2023-02-08T16:15:03.261Z,4.30
2023-02-08T16:17:45.744Z,4.30
2023-02-08T16:20:42.188Z,4.20
2023-02-08T16:23:23.522Z,4.20
2023-02-08T16:25:51.275Z,4.10
2023-02-08T16:28:31.461Z,4.10
2023-02-08T16:31:01.302Z,4.00
2023-02-08T16:33:30.787Z,3.90
2023-02-08T16:36:02.068Z,3.80
2023-02-08T16:38:32.321Z,3.80
2023-02-08T16:41:12.198Z,3.70
2023-02-08T16:43:43.935Z,3.70
2023-02-08T16:46:11.643Z,3.70
2023-02-08T16:48:41.888Z,3.60
2023-02-08T16:51:33.331Z,3.60
2023-02-08T16:54:07.515Z,3.60
2023-02-08T16:56:36.235Z,3.60
2023-02-08T16:59:04.065Z,3.60
2023-02-08T17:01:33.284Z,3.50
2023-02-08T17:04:00.793Z,3.50
2023-02-08T17:06:34.010Z,3.40
2023-02-08T17:09:04.018Z,3.40
2023-02-08T17:11:32.610Z,3.40
2023-02-08T17:14:00.044Z,3.30
2023-02-08T17:16:32.078Z,3.20
2023-02-08T17:19:00.662Z,3.20
2023-02-08T17:21:29.272Z,3.20
2023-02-08T17:23:57.235Z,3.20
2023-02-08T17:26:32.172Z,3.10
2023-02-08T17:29:00.052Z,3.00
2023-02-08T17:31:34.698Z,3.00
2023-02-08T17:34:04.994Z,3.00
2023-02-08T17:36:34.713Z,3.00
2023-02-08T17:39:03.632Z,2.90
2023-02-08T17:41:31.148Z,2.90
2023-02-08T17:43:58.677Z,2.90
2023-02-08T17:46:30.557Z,2.80
2023-02-08T17:49:03.561Z,2.70
2023-02-08T17:51:31.580Z,2.70
2023-02-08T17:53:59.210Z,2.60
2023-02-08T17:56:29.420Z,2.60
2023-02-08T17:58:57.779Z,2.60
2023-02-08T18:01:27.119Z,2.50
2023-02-08T18:03:55.293Z,2.50
2023-02-08T18:06:25.018Z,2.40
2023-02-08T18:08:53.886Z,2.40
2023-02-08T18:11:23.397Z,2.30
2023-02-08T18:13:55.783Z,2.30
2023-02-08T18:16:26.487Z,2.30
2023-02-08T18:18:59.329Z,2.30
2023-02-08T18:21:27.256Z,2.30
2023-02-08T18:23:55.567Z,2.30
2023-02-08T18:26:25.110Z,2.30
2023-02-08T18:28:53.225Z,2.40
2023-02-08T18:31:21.894Z,2.50
2023-02-08T18:33:50.389Z,2.50
2023-02-08T18:36:19.406Z,2.50
2023-02-08T18:38:50.297Z,2.40
2023-02-08T18:41:24.228Z,2.40
2023-02-08T18:43:53.368Z,2.40
2023-02-08T18:46:22.689Z,2.50
2023-02-08T18:48:52.075Z,2.50
2023-02-08T18:51:21.201Z,2.50
2023-02-08T18:53:53.749Z,2.50
2023-02-08T18:56:24.165Z,2.50
2023-02-08T18:58:53.119Z,2.50
2023-02-08T19:01:23.545Z,2.50
2023-02-08T19:03:52.128Z,2.60
2023-02-08T19:06:24.507Z,2.60
2023-02-08T19:08:56.175Z,2.50
2023-02-08T19:11:31.783Z,2.50
2023-02-08T19:14:02.008Z,2.50
2023-02-08T19:16:31.450Z,2.50
2023-02-08T19:19:02.072Z,2.50
2023-02-08T19:21:31.194Z,2.60
2023-02-08T19:24:00.747Z,2.50
2023-02-08T19:26:32.698Z,2.50
2023-02-08T19:29:03.474Z,2.50
2023-02-08T19:31:31.441Z,2.50
2023-02-08T19:34:01.062Z,2.50
2023-02-08T19:36:41.880Z,2.50
2023-02-08T19:39:12.876Z,2.50
2023-02-08T19:41:40.987Z,2.50
2023-02-08T19:44:12.934Z,2.50
2023-02-08T19:46:43.298Z,2.50
2023-02-08T19:49:12.916Z,2.40
2023-02-08T19:51:40.804Z,2.40
2023-02-08T19:54:13.360Z,2.40
2023-02-08T19:56:41.523Z,2.40
2023-02-08T19:59:22.977Z,2.40
2023-02-08T20:01:50.985Z,2.40
2023-02-08T20:04:18.860Z,2.30
2023-02-08T20:06:46.579Z,2.40
2023-02-08T20:09:15.777Z,2.30
2023-02-08T20:11:56.337Z,2.30
2023-02-08T20:14:32.856Z,2.30
2023-02-08T20:17:02.192Z,2.30
2023-02-08T20:19:30.029Z,2.30
2023-02-08T20:21:57.594Z,2.30
2023-02-08T20:24:25.317Z,2.20
2023-02-08T20:26:52.820Z,2.20
2023-02-08T20:29:20.545Z,2.20
2023-02-08T20:31:51.822Z,2.20
2023-02-08T20:34:19.531Z,2.20
2023-02-08T20:37:06.984Z,2.20
2023-02-08T20:39:36.903Z,2.10
2023-02-08T20:42:04.851Z,2.10
2023-02-08T20:44:32.390Z,2.10
2023-02-08T20:47:00.350Z,2.10
2023-02-08T20:49:28.189Z,2.10
2023-02-08T20:51:56.244Z,2.10
2023-02-08T20:54:24.815Z,2.10
2023-02-08T20:56:53.870Z,2.10
2023-02-08T20:59:21.834Z,2.00
2023-02-08T21:01:50.107Z,2.00
2023-02-08T21:04:21.114Z,2.00
2023-02-08T21:06:53.006Z,2.00
2023-02-08T21:09:21.017Z,2.00
2023-02-08T21:11:49.078Z,2.00
2023-02-08T21:14:20.972Z,1.90
2023-02-08T21:16:51.284Z,1.90
2023-02-08T21:19:20.858Z,1.90
2023-02-08T21:21:53.574Z,1.90
2023-02-08T21:24:21.681Z,1.90
2023-02-08T21:26:49.516Z,1.80
2023-02-08T21:29:17.025Z,1.80
2023-02-08T21:31:44.940Z,1.80
2023-02-08T21:34:13.506Z,1.80
2023-02-08T21:36:41.208Z,1.70
2023-02-08T21:39:08.840Z,1.80
2023-02-08T21:41:36.814Z,1.70
2023-02-08T21:44:08.347Z,1.60
2023-02-08T21:46:36.273Z,1.60
2023-02-08T21:49:22.623Z,1.50
2023-02-08T21:52:08.942Z,1.50
2023-02-08T21:54:42.969Z,1.50
2023-02-08T21:57:23.628Z,1.50
2023-02-08T21:59:53.601Z,1.50
2023-02-08T22:02:29.124Z,1.50
2023-02-08T22:05:01.737Z,1.40
2023-02-08T22:07:29.529Z,1.40
2023-02-08T22:09:57.096Z,1.40
2023-02-08T22:12:24.952Z,1.30
2023-02-08T22:14:52.825Z,1.30
2023-02-08T22:17:20.780Z,1.30
2023-02-08T22:19:48.655Z,1.30
2023-02-08T22:22:16.344Z,1.30
2023-02-08T22:24:44.375Z,1.20
2023-02-08T22:27:12.423Z,1.20
2023-02-08T22:29:40.271Z,1.30
2023-02-08T22:32:10.002Z,1.30
2023-02-08T22:34:41.115Z,1.30
2023-02-08T22:37:09.341Z,1.30
2023-02-08T22:39:36.919Z,1.30
2023-02-08T22:42:08.866Z,1.40
2023-02-08T22:44:36.956Z,1.40
2023-02-08T22:47:09.236Z,1.30
2023-02-08T22:49:39.030Z,1.30
2023-02-08T22:52:08.839Z,1.30
2023-02-08T22:54:36.948Z,1.30
2023-02-08T22:57:06.878Z,1.30
2023-02-08T22:59:38.177Z,1.30
2023-02-08T23:02:06.923Z,1.30
2023-02-08T23:04:34.589Z,1.40
2023-02-08T23:07:02.737Z,1.40
2023-02-08T23:09:30.776Z,1.40
2023-02-08T23:11:58.417Z,1.40
2023-02-08T23:14:26.238Z,1.40
2023-02-08T23:16:54.069Z,1.40
2023-02-08T23:19:21.916Z,1.40
2023-02-08T23:21:49.619Z,1.40
2023-02-08T23:24:17.236Z,1.40
2023-02-08T23:26:45.037Z,1.40
2023-02-08T23:29:12.745Z,1.40
2023-02-08T23:31:41.444Z,1.40
2023-02-08T23:34:11.576Z,1.50
2023-02-08T23:36:39.496Z,1.50
2023-02-08T23:39:07.048Z,1.40
2023-02-08T23:41:35.826Z,1.40
2023-02-08T23:44:05.178Z,1.40
2023-02-08T23:46:35.279Z,1.40
2023-02-08T23:49:03.639Z,1.40
2023-02-08T23:51:31.490Z,1.50
2023-02-08T23:53:59.152Z,1.50
2023-02-08T23:56:30.014Z,1.50
2023-02-08T23:58:59.248Z,1.50
